Time;durP1;ratioP1;P1;durP2;ratioP2;P2;SDS_P1;SDS_P2;PMS_P1;PMS_P2;Temp;Humidity;BMP_temperature;BMP_pressure;BME280_temperature;BME280_humidity;BME280_pressure;Samples;Min_cycle;Max_cycle;Signal;HPM_P1;HPM_P2
2023/04/12 00:00:34;;;;;;;6.45;1.37;;;10.00;99.90;;;;;;7300642;32;20829;-55
2023/04/12 00:04:36;;;;;;;4.82;1.62;;;10.00;99.90;;;;;;7300925;32;20158;-55
2023/04/12 00:08:38;;;;;;;7.85;1.40;;;9.90;99.90;;;;;;7297966;32;20096;-55
2023/04/12 00:12:40;;;;;;;6.75;1.27;;;9.60;99.90;;;;;;7300895;32;20159;-55
2023/04/12 00:16:43;;;;;;;5.78;1.27;;;9.50;99.90;;;;;;7300620;32;20231;-55
2023/04/12 00:20:44;;;;;;;5.82;1.48;;;9.30;99.90;;;;;;7307020;32;20788;-55
2023/04/12 00:24:46;;;;;;;8.40;1.77;;;9.20;99.90;;;;;;7299452;32;20173;-56
2023/04/12 00:28:48;;;;;;;8.63;1.60;;;9.00;99.90;;;;;;7299762;32;20122;-55
2023/04/12 00:32:49;;;;;;;10.40;1.67;;;9.00;99.90;;;;;;7299441;32;20198;-55
2023/04/12 00:36:51;;;;;;;6.70;1.73;;;8.80;99.90;;;;;;7306067;32;20212;-55
2023/04/12 00:40:53;;;;;;;9.05;1.50;;;8.80;99.90;;;;;;7304676;32;20135;-56
2023/04/12 00:44:54;;;;;;;7.75;1.42;;;8.70;99.90;;;;;;7300042;32;20104;-55
2023/04/12 00:48:57;;;;;;;5.87;1.50;;;8.60;99.90;;;;;;7301871;32;20148;-55
2023/04/12 00:52:59;;;;;;;7.43;1.62;;;8.60;99.90;;;;;;7296014;32;20173;-55
2023/04/12 00:57:01;;;;;;;6.78;1.08;;;8.60;99.90;;;;;;7306160;32;20099;-55
2023/04/12 01:01:03;;;;;;;6.70;1.48;;;8.60;99.90;;;;;;7307580;32;20194;-55
2023/04/12 01:05:07;;;;;;;5.00;1.42;;;8.50;99.90;;;;;;7306999;32;20163;-54
2023/04/12 01:09:29;;;;;;;8.20;1.33;;;8.40;99.90;;;;;;7303447;32;20132;-55
2023/04/12 01:13:38;;;;;;;10.27;2.00;;;8.30;99.90;;;;;;7299322;32;20257;-56
2023/04/12 01:18:02;;;;;;;8.52;1.77;;;8.40;99.90;;;;;;7297016;32;20138;-55
2023/04/12 01:22:49;;;;;;;7.37;2.22;;;8.40;99.90;;;;;;7302561;32;20450;-55
2023/04/12 01:26:56;;;;;;;7.65;1.70;;;8.30;99.90;;;;;;7297051;32;20177;-57
2023/04/12 01:31:02;;;;;;;9.10;1.60;;;8.30;99.90;;;;;;7301358;32;20187;-55
2023/04/12 01:35:07;;;;;;;5.90;1.40;;;8.30;99.90;;;;;;7308790;32;20160;-55
2023/04/12 01:39:10;;;;;;;8.05;1.60;;;8.30;99.90;;;;;;7304003;32;20248;-54
2023/04/12 01:43:13;;;;;;;10.88;1.65;;;8.30;99.90;;;;;;7303597;32;20213;-55
2023/04/12 01:47:15;;;;;;;3.85;1.12;;;8.20;99.90;;;;;;7301052;32;20118;-54
2023/04/12 01:51:32;;;;;;;7.05;2.08;;;8.20;99.90;;;;;;7301807;32;20108;-55
2023/04/12 01:55:37;;;;;;;8.15;1.80;;;8.10;99.90;;;;;;7310397;32;20460;-55
2023/04/12 01:59:42;;;;;;;7.68;1.58;;;8.10;99.90;;;;;;7308370;32;20214;-54
2023/04/12 02:03:45;;;;;;;5.57;1.58;;;8.10;99.90;;;;;;7303595;32;20505;-55
2023/04/12 02:07:49;;;;;;;8.18;1.92;;;8.10;99.90;;;;;;7311267;32;20099;-55
2023/04/12 02:11:50;;;;;;;8.20;1.90;;;8.10;99.90;;;;;;7312866;32;20111;-55
2023/04/12 02:15:53;;;;;;;7.87;1.62;;;8.10;99.90;;;;;;7306747;32;20142;-54
2023/04/12 02:19:56;;;;;;;7.22;1.85;;;8.00;99.90;;;;;;7302010;32;20224;-54
2023/04/12 02:23:58;;;;;;;9.65;1.80;;;8.00;99.90;;;;;;7303255;32;20123;-55
2023/04/12 02:28:00;;;;;;;8.35;1.58;;;7.90;99.90;;;;;;7311484;32;20709;-55
2023/04/12 02:32:03;;;;;;;6.55;1.48;;;7.90;99.90;;;;;;7299449;32;20123;-54
2023/04/12 02:36:24;;;;;;;5.18;1.20;;;7.80;99.90;;;;;;7308922;32;20185;-54
2023/04/12 02:40:26;;;;;;;4.95;1.60;;;7.80;99.90;;;;;;7310553;32;20536;-54
2023/04/12 02:44:30;;;;;;;3.83;1.02;;;7.90;99.90;;;;;;7312834;32;20099;-55
2023/04/12 02:48:31;;;;;;;8.35;1.37;;;7.80;99.90;;;;;;7305858;32;20504;-54
2023/04/12 02:52:33;;;;;;;3.85;1.23;;;7.80;99.90;;;;;;7315507;32;20210;-54
2023/04/12 02:56:35;;;;;;;7.47;1.45;;;7.80;99.90;;;;;;7305223;32;20104;-55
2023/04/12 03:00:37;;;;;;;7.28;1.40;;;7.70;99.90;;;;;;7307725;32;20114;-55
2023/04/12 03:04:39;;;;;;;5.45;1.30;;;7.60;99.90;;;;;;7303725;32;20108;-54
2023/04/12 03:08:40;;;;;;;6.22;1.37;;;7.70;99.90;;;;;;7308511;32;20199;-55
2023/04/12 03:12:42;;;;;;;6.07;1.40;;;7.60;99.90;;;;;;7302390;32;20220;-54
2023/04/12 03:16:44;;;;;;;6.10;1.30;;;7.60;99.90;;;;;;7300469;32;20179;-55
2023/04/12 03:20:46;;;;;;;3.90;1.30;;;7.70;99.90;;;;;;7304404;32;20180;-55
2023/04/12 03:24:48;;;;;;;7.00;1.23;;;7.70;99.90;;;;;;7301690;32;20123;-55
2023/04/12 03:28:50;;;;;;;4.53;1.25;;;7.60;99.90;;;;;;7302450;32;20816;-54
2023/04/12 03:32:51;;;;;;;6.43;1.33;;;7.60;99.90;;;;;;7300252;32;20192;-55
2023/04/12 03:36:54;;;;;;;6.15;1.35;;;7.60;99.90;;;;;;7303789;32;20133;-55
2023/04/12 03:40:56;;;;;;;5.62;1.30;;;7.60;99.90;;;;;;7302784;32;20847;-55
2023/04/12 03:44:58;;;;;;;5.20;1.30;;;7.70;99.90;;;;;;7298013;32;20120;-55
2023/04/12 03:49:00;;;;;;;3.85;1.30;;;7.60;99.90;;;;;;7303594;32;20113;-55
2023/04/12 03:53:01;;;;;;;6.45;1.40;;;7.60;99.90;;;;;;7299903;32;20545;-55
2023/04/12 03:57:03;;;;;;;6.18;1.30;;;7.60;99.90;;;;;;7309247;32;20168;-55
2023/04/12 04:01:05;;;;;;;5.70;1.30;;;7.60;99.90;;;;;;7302822;32;20427;-55
2023/04/12 04:05:07;;;;;;;2.85;1.02;;;7.70;99.90;;;;;;7300268;32;20105;-55
2023/04/12 04:09:09;;;;;;;2.95;1.15;;;7.70;99.90;;;;;;7304482;32;20135;-55
2023/04/12 04:13:11;;;;;;;3.47;0.90;;;7.70;99.90;;;;;;7305365;32;20145;-56
2023/04/12 04:17:12;;;;;;;9.60;1.17;;;7.70;99.90;;;;;;7310348;32;20262;-55
2023/04/12 04:21:14;;;;;;;6.80;1.12;;;7.70;99.90;;;;;;7299343;32;20196;-55
2023/04/12 04:25:16;;;;;;;4.55;1.20;;;7.80;99.90;;;;;;7311626;32;20308;-55
2023/04/12 04:29:17;;;;;;;5.03;1.40;;;7.80;99.90;;;;;;7300296;32;20122;-55
2023/04/12 04:33:19;;;;;;;5.10;1.30;;;7.80;99.90;;;;;;7297647;32;20142;-55
2023/04/12 04:37:23;;;;;;;3.85;1.30;;;7.70;99.90;;;;;;7299504;32;20126;-55
2023/04/12 04:41:25;;;;;;;2.00;0.90;;;7.80;99.90;;;;;;7299542;32;20202;-55
2023/04/12 04:45:27;;;;;;;2.97;1.00;;;7.80;99.90;;;;;;7297005;32;20124;-55
2023/04/12 04:49:29;;;;;;;3.42;1.27;;;7.80;99.90;;;;;;7301446;32;20164;-56
2023/04/12 04:53:31;;;;;;;7.53;1.40;;;7.80;99.90;;;;;;7300329;32;20123;-56
2023/04/12 04:57:32;;;;;;;3.90;1.23;;;7.80;99.90;;;;;;7300999;32;20166;-56
2023/04/12 05:01:35;;;;;;;5.50;1.40;;;7.80;99.90;;;;;;7300543;32;20205;-56
2023/04/12 05:05:37;;;;;;;3.78;1.30;;;7.80;99.90;;;;;;7304849;32;20131;-57
2023/04/12 05:09:39;;;;;;;6.32;1.50;;;7.80;99.90;;;;;;7298914;32;20926;-55
2023/04/12 05:13:41;;;;;;;4.78;1.52;;;7.70;99.90;;;;;;7299005;32;20111;-60
2023/04/12 05:17:42;;;;;;;7.03;1.50;;;7.80;99.90;;;;;;7298383;32;20195;-58
2023/04/12 05:21:44;;;;;;;4.68;1.50;;;7.70;99.90;;;;;;7300423;32;20224;-57
2023/04/12 05:25:47;;;;;;;5.87;1.62;;;7.60;99.90;;;;;;7302383;32;20108;-55
2023/04/12 05:29:49;;;;;;;5.37;1.77;;;7.60;99.90;;;;;;7300397;32;20790;-57
2023/04/12 05:33:52;;;;;;;4.37;1.52;;;7.60;99.90;;;;;;7299024;32;20133;-58
2023/04/12 05:37:54;;;;;;;4.20;1.50;;;7.50;99.90;;;;;;7301797;32;20195;-57
2023/04/12 05:41:56;;;;;;;4.45;1.73;;;7.60;99.90;;;;;;7298954;32;20120;-57
2023/04/12 05:45:58;;;;;;;4.57;1.42;;;7.60;99.90;;;;;;7302987;32;20207;-58
2023/04/12 05:49:59;;;;;;;2.40;1.50;;;7.50;99.90;;;;;;7301564;32;20125;-57
2023/04/12 05:54:05;;;;;;;6.50;1.90;;;7.60;99.90;;;;;;7294986;32;20244;-57
2023/04/12 05:58:06;;;;;;;3.55;1.75;;;7.50;99.90;;;;;;7308305;32;20150;-58
2023/04/12 06:02:17;;;;;;;3.15;1.75;;;7.60;99.90;;;;;;7312702;32;20175;-58
2023/04/12 06:06:19;;;;;;;4.70;1.90;;;7.60;99.90;;;;;;7311231;32;20130;-58
2023/04/12 06:10:21;;;;;;;2.50;1.90;;;7.60;99.90;;;;;;7300321;32;20104;-58
2023/04/12 06:14:22;;;;;;;3.05;1.75;;;7.60;99.90;;;;;;7307189;32;20325;-58
2023/04/12 06:18:24;;;;;;;5.57;2.15;;;7.60;99.90;;;;;;7309517;32;20112;-56
2023/04/12 06:22:26;;;;;;;4.87;1.60;;;7.70;99.90;;;;;;7310237;32;20135;-56
2023/04/12 06:26:29;;;;;;;4.18;1.65;;;7.70;99.90;;;;;;7309235;32;20104;-56
2023/04/12 06:30:40;;;;;;;4.37;1.70;;;7.70;99.90;;;;;;7307108;32;20447;-56
2023/04/12 06:34:42;;;;;;;4.43;1.65;;;7.80;99.90;;;;;;7308719;32;20190;-56
2023/04/12 06:38:44;;;;;;;3.85;1.65;;;7.80;99.90;;;;;;7307301;32;20105;-57
2023/04/12 06:42:45;;;;;;;5.60;1.60;;;7.80;99.90;;;;;;7313069;32;20097;-57
2023/04/12 06:46:47;;;;;;;3.83;1.65;;;7.90;99.90;;;;;;7307565;32;20550;-57
2023/04/12 06:50:49;;;;;;;3.55;1.30;;;7.80;99.90;;;;;;7308878;32;20565;-57
2023/04/12 06:54:51;;;;;;;5.72;1.70;;;7.90;99.90;;;;;;7310818;32;20266;-57
2023/04/12 06:58:53;;;;;;;4.05;1.37;;;8.00;99.90;;;;;;7305413;32;20206;-56
2023/04/12 07:02:56;;;;;;;5.28;1.50;;;8.00;99.90;;;;;;7306119;32;20297;-57
2023/04/12 07:06:58;;;;;;;5.78;1.65;;;7.90;99.90;;;;;;7307684;32;20099;-56
2023/04/12 07:11:00;;;;;;;6.20;1.42;;;7.90;99.90;;;;;;7301794;32;20326;-57
2023/04/12 07:15:20;;;;;;;3.15;1.50;;;8.00;99.90;;;;;;7308499;32;20164;-57
2023/04/12 07:19:22;;;;;;;3.17;1.55;;;8.10;99.90;;;;;;7311936;32;20100;-57
2023/04/12 07:23:26;;;;;;;2.33;1.40;;;8.10;99.90;;;;;;7307102;32;20246;-58
2023/04/12 07:27:28;;;;;;;4.80;1.80;;;8.10;99.90;;;;;;7308899;32;20125;-58
2023/04/12 07:31:30;;;;;;;2.80;1.40;;;8.20;99.90;;;;;;7315472;32;20104;-56
2023/04/12 07:35:32;;;;;;;2.87;1.15;;;8.30;99.90;;;;;;7310294;32;20290;-57
2023/04/12 07:39:36;;;;;;;4.40;1.50;;;8.20;99.90;;;;;;7302157;32;20255;-57
2023/04/12 07:43:37;;;;;;;3.67;1.35;;;8.30;99.90;;;;;;7302830;32;20233;-57
2023/04/12 07:47:39;;;;;;;1.77;1.12;;;8.40;99.90;;;;;;7303799;32;20254;-57
2023/04/12 07:51:41;;;;;;;3.08;1.40;;;8.50;99.90;;;;;;7311548;32;20182;-57
2023/04/12 07:55:43;;;;;;;3.60;1.45;;;8.40;99.90;;;;;;7307758;32;20564;-57
2023/04/12 07:59:45;;;;;;;2.55;0.98;;;8.50;99.90;;;;;;7303374;32;20237;-57
2023/04/12 08:03:47;;;;;;;4.30;1.60;;;8.50;99.90;;;;;;7303288;32;20479;-57
2023/04/12 08:07:48;;;;;;;2.80;1.20;;;8.50;99.90;;;;;;7300723;32;20160;-56
2023/04/12 08:11:51;;;;;;;4.65;1.15;;;8.60;99.90;;;;;;7294533;32;20237;-57
2023/04/12 08:15:52;;;;;;;2.95;1.30;;;8.60;99.90;;;;;;7302948;32;20092;-57
2023/04/12 08:19:54;;;;;;;3.80;1.17;;;8.70;99.90;;;;;;7298736;32;20100;-57
2023/04/12 08:23:56;;;;;;;2.37;1.12;;;8.70;99.90;;;;;;7304177;32;20183;-57
2023/04/12 08:27:58;;;;;;;2.83;1.10;;;8.90;99.90;;;;;;7303044;32;20115;-57
2023/04/12 08:32:00;;;;;;;1.23;0.93;;;8.90;99.90;;;;;;7305225;32;20127;-56
2023/04/12 08:36:02;;;;;;;1.55;1.23;;;9.10;99.90;;;;;;7308441;32;20164;-57
2023/04/12 08:40:08;;;;;;;2.58;0.82;;;9.20;99.90;;;;;;7309937;32;20235;-57
2023/04/12 08:44:10;;;;;;;2.40;1.02;;;9.50;99.90;;;;;;7310430;32;20162;-57
2023/04/12 08:48:12;;;;;;;2.90;1.17;;;9.40;99.90;;;;;;7314070;32;20531;-57
2023/04/12 08:52:14;;;;;;;1.80;1.08;;;9.50;99.90;;;;;;7320271;32;20297;-57
2023/04/12 08:56:17;;;;;;;2.25;1.20;;;9.50;99.90;;;;;;7312690;32;20125;-57
2023/04/12 09:00:19;;;;;;;4.53;1.55;;;9.40;99.90;;;;;;7316116;32;20123;-57
2023/04/12 09:04:22;;;;;;;1.77;1.10;;;9.40;99.90;;;;;;7305877;32;20186;-57
2023/04/12 09:08:24;;;;;;;2.33;1.20;;;9.40;99.90;;;;;;7313833;32;20921;-57
2023/04/12 09:12:26;;;;;;;2.25;1.10;;;9.40;99.90;;;;;;7312255;32;20104;-57
2023/04/12 09:16:34;;;;;;;2.80;1.10;;;9.40;99.90;;;;;;7310700;32;20111;-57
2023/04/12 09:20:37;;;;;;;1.95;1.33;;;9.30;99.90;;;;;;7312052;32;20506;-57
2023/04/12 09:24:48;;;;;;;2.20;1.45;;;9.50;99.90;;;;;;7322374;32;20127;-56
2023/04/12 09:28:50;;;;;;;2.58;1.30;;;9.60;99.90;;;;;;7315444;32;20611;-57
2023/04/12 09:32:54;;;;;;;2.75;1.40;;;9.70;99.90;;;;;;7301990;32;20577;-57
2023/04/12 09:36:57;;;;;;;1.58;1.40;;;9.80;99.90;;;;;;7313843;32;20123;-57
2023/04/12 09:41:18;;;;;;;2.42;1.55;;;9.80;99.90;;;;;;7315314;32;20278;-58
2023/04/12 09:45:25;;;;;;;2.42;1.40;;;9.80;99.90;;;;;;7316811;32;20281;-56
2023/04/12 09:49:43;;;;;;;2.53;1.77;;;9.90;99.90;;;;;;7307138;32;20541;-55
2023/04/12 09:53:49;;;;;;;2.08;1.67;;;10.00;99.90;;;;;;7320496;32;20170;-56
2023/04/12 09:57:52;;;;;;;4.40;1.95;;;10.00;99.90;;;;;;7329105;32;20113;-56
2023/04/12 10:01:54;;;;;;;2.75;2.05;;;10.10;99.90;;;;;;7327639;32;20143;-55
2023/04/12 10:05:56;;;;;;;2.17;1.70;;;10.20;99.90;;;;;;7310916;32;20309;-56
2023/04/12 10:09:59;;;;;;;3.87;2.00;;;10.50;99.90;;;;;;7321023;32;20194;-56
2023/04/12 10:14:02;;;;;;;1.83;1.52;;;10.80;99.90;;;;;;7334864;32;20182;-56
2023/04/12 10:18:05;;;;;;;1.80;1.25;;;11.10;99.90;;;;;;7323007;32;20214;-56
2023/04/12 10:22:07;;;;;;;2.67;1.23;;;11.30;99.90;;;;;;7324632;32;20115;-57
2023/04/12 10:26:09;;;;;;;2.58;1.52;;;11.10;99.90;;;;;;7323781;32;20123;-57
2023/04/12 10:30:24;;;;;;;2.58;1.70;;;10.90;99.90;;;;;;7324306;32;20194;-57
2023/04/12 10:34:27;;;;;;;2.25;2.03;;;10.70;99.90;;;;;;7326934;32;20293;-57
2023/04/12 10:39:07;;;;;;;2.35;1.60;;;10.60;99.90;;;;;;7331945;32;20537;-57
2023/04/12 10:43:18;;;;;;;5.32;1.40;;;10.60;99.90;;;;;;7318667;32;20154;-57
2023/04/12 10:47:48;;;;;;;2.83;1.40;;;10.70;99.90;;;;;;7324269;32;20182;-57
2023/04/12 10:52:08;;;;;;;2.90;0.70;;;10.90;99.90;;;;;;7319453;32;20187;-56
2023/04/12 10:56:28;;;;;;;1.10;0.90;;;11.00;99.90;;;;;;7316713;32;20565;-55
2023/04/12 11:00:55;;;;;;;1.25;0.82;;;11.00;99.90;;;;;;7294600;32;20166;-56
2023/04/12 11:05:08;;;;;;;1.87;1.00;;;10.90;99.90;;;;;;7301597;32;20150;-55
2023/04/12 11:09:31;;;;;;;2.95;1.12;;;10.80;99.90;;;;;;7302859;32;20119;-57
2023/04/12 11:13:37;;;;;;;2.08;1.00;;;10.80;99.90;;;;;;7303584;32;20150;-56
2023/04/12 11:17:39;;;;;;;4.97;1.50;;;10.50;99.90;;;;;;7296491;32;20246;-55
2023/04/12 11:21:42;;;;;;;5.93;1.30;;;10.20;99.90;;;;;;7303368;32;20118;-56
2023/04/12 11:25:54;;;;;;;6.28;1.30;;;9.90;99.90;;;;;;7307547;32;20135;-56
2023/04/12 11:29:58;;;;;;;7.47;1.35;;;9.90;99.90;;;;;;7304619;32;20194;-56
2023/04/12 11:34:00;;;;;;;4.95;1.17;;;10.20;99.90;;;;;;7318985;32;20199;-56
2023/04/12 11:38:02;;;;;;;6.57;1.60;;;10.40;99.90;;;;;;7296878;32;20164;-57
2023/04/12 11:42:07;;;;;;;6.97;1.30;;;10.50;99.90;;;;;;7306396;32;20266;-56
2023/04/12 11:46:09;;;;;;;7.57;1.75;;;11.10;99.90;;;;;;7306157;32;20155;-56
2023/04/12 11:50:11;;;;;;;6.28;1.50;;;11.30;99.90;;;;;;7317360;32;20128;-56
2023/04/12 11:54:13;;;;;;;8.35;1.87;;;11.50;99.90;;;;;;7315316;32;20126;-56
2023/04/12 11:58:16;;;;;;;5.43;1.50;;;12.10;99.90;;;;;;7317582;32;20309;-57
2023/04/12 12:02:19;;;;;;;3.83;1.00;;;12.80;99.90;;;;;;7310074;32;20121;-55
2023/04/12 12:06:26;;;;;;;;;;;14.20;99.90;;;;;;7311128;32;20278;-58
2023/04/12 12:10:28;;;;;;;8.07;1.67;;;14.20;99.90;;;;;;7309674;32;20025;-56
2023/04/12 12:14:50;;;;;;;5.10;1.50;;;14.10;99.90;;;;;;7321741;32;20092;-55
2023/04/12 12:18:53;;;;;;;6.07;1.48;;;13.70;99.90;;;;;;7307789;32;20253;-56
2023/04/12 12:22:54;;;;;;;5.25;1.30;;;13.80;99.90;;;;;;7305264;32;20213;-56
2023/04/12 12:27:01;;;;;;;5.30;1.50;;;14.00;99.90;;;;;;7308071;32;20478;-56
2023/04/12 12:31:05;;;;;;;2.75;1.10;;;14.00;99.90;;;;;;7304541;32;20566;-56
2023/04/12 12:35:12;;;;;;;6.47;1.60;;;13.90;99.90;;;;;;7308121;32;20298;-55
2023/04/12 12:39:14;;;;;;;4.13;1.30;;;14.00;99.90;;;;;;7307703;32;20165;-56
2023/04/12 12:43:19;;;;;;;4.22;0.95;;;14.20;99.90;;;;;;7309768;32;20146;-56
2023/04/12 12:47:21;;;;;;;5.62;1.23;;;14.40;99.90;;;;;;7310080;32;20186;-56
2023/04/12 12:51:23;;;;;;;8.10;1.40;;;14.40;99.90;;;;;;7314089;32;20100;-56
2023/04/12 12:55:25;;;;;;;12.15;1.98;;;15.00;99.90;;;;;;7307878;32;20217;-56
2023/04/12 12:59:27;;;;;;;9.23;1.58;;;15.40;99.90;;;;;;7310378;32;20123;-56
2023/04/12 13:03:32;;;;;;;7.87;1.85;;;15.50;99.90;;;;;;7298138;32;20127;-56
2023/04/12 13:07:35;;;;;;;5.87;1.55;;;15.30;99.90;;;;;;7300441;32;20225;-56
2023/04/12 13:11:36;;;;;;;6.18;1.40;;;15.10;99.90;;;;;;7297634;32;20414;-56
2023/04/12 13:15:38;;;;;;;9.68;1.90;;;14.80;99.90;;;;;;7284268;32;20191;-56
2023/04/12 13:19:40;;;;;;;6.85;1.87;;;15.00;99.90;;;;;;7291474;32;20198;-57
2023/04/12 13:23:42;;;;;;;5.65;1.65;;;15.00;99.90;;;;;;7298670;32;20142;-57
2023/04/12 13:27:43;;;;;;;9.30;2.22;;;14.60;99.90;;;;;;7299827;32;20223;-57
2023/04/12 13:31:45;;;;;;;6.10;1.50;;;14.50;99.90;;;;;;7304154;32;20264;-56
2023/04/12 13:35:47;;;;;;;8.05;1.90;;;16.40;99.90;;;;;;7320441;32;20137;-56
2023/04/12 13:39:50;;;;;;;8.75;2.25;;;16.40;99.90;;;;;;7315484;32;20124;-56
2023/04/12 13:43:52;;;;;;;8.38;2.20;;;15.50;99.90;;;;;;7302538;32;20165;-56
2023/04/12 13:47:53;;;;;;;8.27;2.03;;;14.80;99.90;;;;;;7307284;32;20192;-56
2023/04/12 13:51:55;;;;;;;8.68;2.30;;;14.10;99.90;;;;;;7311973;32;20206;-56
2023/04/12 13:55:57;;;;;;;13.60;1.92;;;13.30;99.90;;;;;;7307181;32;20223;-56
2023/04/12 13:59:59;;;;;;;6.75;1.20;;;12.50;99.90;;;;;;7303809;32;20138;-55
2023/04/12 14:04:02;;;;;;;3.45;0.82;;;11.70;99.90;;;;;;7302621;32;20373;-56
2023/04/12 14:08:04;;;;;;;6.53;1.20;;;11.10;99.90;;;;;;7309352;32;20099;-56
2023/04/12 14:12:06;;;;;;;6.50;0.70;;;11.00;99.90;;;;;;7309230;32;20125;-56
2023/04/12 14:16:08;;;;;;;3.03;0.73;;;11.00;99.90;;;;;;7305515;32;20206;-55
2023/04/12 14:20:11;;;;;;;3.33;0.90;;;10.50;99.90;;;;;;7302675;32;20123;-55
2023/04/12 14:24:13;;;;;;;12.73;1.73;;;9.70;99.90;;;;;;7303513;32;20169;-55
2023/04/12 14:28:16;;;;;;;9.63;1.42;;;9.20;99.90;;;;;;7311623;32;20202;-56
2023/04/12 14:32:17;;;;;;;5.40;0.90;;;9.10;99.90;;;;;;7302207;32;20112;-56
2023/04/12 14:36:19;;;;;;;5.25;1.35;;;9.20;99.90;;;;;;7307553;32;20194;-56
2023/04/12 14:40:21;;;;;;;6.03;1.35;;;9.30;99.90;;;;;;7306662;32;20679;-56
2023/04/12 14:44:23;;;;;;;6.43;1.27;;;9.40;99.90;;;;;;7308986;32;20170;-56
2023/04/12 14:48:27;;;;;;;5.72;1.08;;;9.50;99.90;;;;;;7303901;32;20100;-56
2023/04/12 14:52:29;;;;;;;5.93;1.10;;;9.70;99.90;;;;;;7309598;32;20140;-56
2023/04/12 14:56:31;;;;;;;6.68;1.10;;;9.90;99.90;;;;;;7309361;32;20312;-56
2023/04/12 15:00:36;;;;;;;5.00;1.00;;;10.40;99.90;;;;;;7302551;32;20187;-56
2023/04/12 15:04:38;;;;;;;2.83;1.17;;;10.90;99.90;;;;;;7306862;32;20174;-56
2023/04/12 15:08:41;;;;;;;4.37;1.05;;;11.10;99.90;;;;;;7301953;32;20189;-56
2023/04/12 15:12:43;;;;;;;7.62;1.20;;;11.20;99.90;;;;;;7301748;32;20152;-56
2023/04/12 15:16:47;;;;;;;5.87;1.10;;;10.90;99.90;;;;;;7300812;32;20231;-56
2023/04/12 15:20:50;;;;;;;5.55;1.58;;;10.40;99.90;;;;;;7308843;32;20467;-55
2023/04/12 15:24:52;;;;;;;6.28;1.55;;;9.80;99.90;;;;;;7304805;32;20128;-56
2023/04/12 15:28:53;;;;;;;4.60;1.67;;;9.30;99.90;;;;;;7300802;32;20097;-55
2023/04/12 15:32:57;;;;;;;8.30;1.70;;;9.60;99.90;;;;;;7309143;32;20324;-56
2023/04/12 15:36:58;;;;;;;7.10;1.58;;;9.70;99.90;;;;;;7306852;32;20210;-56
2023/04/12 15:41:00;;;;;;;7.07;1.58;;;9.40;99.90;;;;;;7304408;32;20122;-56
2023/04/12 15:45:03;;;;;;;5.15;1.45;;;9.20;99.90;;;;;;7305335;32;20220;-56
2023/04/12 15:49:05;;;;;;;3.87;1.10;;;9.10;99.90;;;;;;7303716;32;20446;-56
2023/04/12 15:53:07;;;;;;;2.65;0.98;;;9.40;99.90;;;;;;7296898;32;20142;-58
2023/04/12 15:57:10;;;;;;;2.60;0.70;;;9.50;99.90;;;;;;7306533;32;20291;-57
2023/04/12 16:01:12;;;;;;;3.65;1.17;;;9.40;99.90;;;;;;7297938;32;20510;-57
2023/04/12 16:05:13;;;;;;;2.90;0.80;;;9.30;99.90;;;;;;7305618;32;20370;-55
2023/04/12 16:09:15;;;;;;;3.35;0.68;;;9.30;99.90;;;;;;7303340;32;20595;-57
2023/04/12 16:13:17;;;;;;;2.42;0.70;;;9.10;99.90;;;;;;7305154;32;20186;-56
2023/04/12 16:17:19;;;;;;;1.50;0.60;;;8.90;99.90;;;;;;7305264;32;20103;-55
2023/04/12 16:21:22;;;;;;;3.67;0.70;;;8.90;99.90;;;;;;7306519;32;20126;-56
2023/04/12 16:25:28;;;;;;;2.12;0.73;;;8.80;99.90;;;;;;7308457;32;20716;-56
2023/04/12 16:29:30;;;;;;;1.98;0.50;;;8.80;99.90;;;;;;7308160;32;20589;-56
2023/04/12 16:33:32;;;;;;;1.42;0.60;;;8.60;99.90;;;;;;7301578;32;20183;-57
2023/04/12 16:37:33;;;;;;;3.25;0.70;;;8.50;99.90;;;;;;7305405;32;20169;-57
2023/04/12 16:41:35;;;;;;;3.55;0.73;;;8.50;99.90;;;;;;7305536;32;20263;-57
2023/04/12 16:45:37;;;;;;;4.28;0.77;;;8.60;99.90;;;;;;7304324;32;20221;-57
2023/04/12 16:49:39;;;;;;;11.23;5.57;;;8.90;99.90;;;;;;7307635;32;20124;-57
2023/04/12 16:53:40;;;;;;;4.03;1.00;;;8.90;99.90;;;;;;7300134;32;20197;-57
2023/04/12 16:57:45;;;;;;;3.95;1.08;;;9.10;99.90;;;;;;7308589;32;20137;-57
2023/04/12 17:01:47;;;;;;;2.62;1.00;;;9.00;99.90;;;;;;7303261;32;20095;-57
2023/04/12 17:05:49;;;;;;;2.15;0.90;;;9.00;99.90;;;;;;7296835;32;20530;-57
2023/04/12 17:09:51;;;;;;;2.30;0.80;;;8.90;99.90;;;;;;7305119;32;20154;-57
2023/04/12 17:13:52;;;;;;;2.45;1.15;;;8.90;99.90;;;;;;7299201;32;20629;-57
2023/04/12 17:18:06;;;;;;;3.08;1.50;;;8.90;99.90;;;;;;7312188;32;20195;-56
2023/04/12 17:22:07;;;;;;;3.78;1.52;;;9.00;99.90;;;;;;7320286;32;20125;-57
2023/04/12 17:26:09;;;;;;;5.85;1.60;;;8.90;99.90;;;;;;7298858;32;20607;-57
2023/04/12 17:30:12;;;;;;;5.97;1.45;;;8.50;99.90;;;;;;7299751;32;20268;-57
2023/04/12 17:34:14;;;;;;;6.50;2.20;;;8.40;99.90;;;;;;7299718;32;20533;-57
2023/04/12 17:38:16;;;;;;;5.78;2.25;;;8.10;99.90;;;;;;7295941;32;20127;-57
2023/04/12 17:42:18;;;;;;;5.82;1.75;;;8.00;99.90;;;;;;7301629;32;20109;-57
2023/04/12 17:46:20;;;;;;;4.68;1.90;;;7.90;99.90;;;;;;7302932;32;20119;-57
2023/04/12 17:50:22;;;;;;;4.35;1.85;;;7.80;99.90;;;;;;7302860;32;20112;-57
2023/04/12 17:54:23;;;;;;;4.95;1.65;;;7.70;99.90;;;;;;7301250;32;20226;-56
2023/04/12 17:58:26;;;;;;;3.33;1.50;;;7.60;99.90;;;;;;7303582;32;20278;-57
2023/04/12 18:02:28;;;;;;;5.32;1.90;;;7.40;99.90;;;;;;7305706;32;20550;-57
2023/04/12 18:06:31;;;;;;;4.90;1.75;;;7.30;99.90;;;;;;7300743;32;20517;-57
2023/04/12 18:10:33;;;;;;;3.12;1.80;;;7.10;99.90;;;;;;7314538;32;20353;-57
2023/04/12 18:14:35;;;;;;;6.05;2.10;;;7.00;99.90;;;;;;7304441;32;20119;-57
2023/04/12 18:18:37;;;;;;;5.72;2.30;;;6.90;99.90;;;;;;7322856;32;20103;-57
2023/04/12 18:22:39;;;;;;;5.55;1.90;;;6.80;99.90;;;;;;7300775;32;20123;-57
2023/04/12 18:26:41;;;;;;;4.03;1.62;;;6.80;99.90;;;;;;7315515;32;20229;-57
2023/04/12 18:30:43;;;;;;;5.47;2.12;;;6.70;99.90;;;;;;7322603;32;20131;-57
2023/04/12 18:34:45;;;;;;;4.03;1.83;;;6.60;99.90;;;;;;7312529;32;20127;-56
2023/04/12 18:38:46;;;;;;;4.93;2.10;;;6.50;99.90;;;;;;7320756;32;20108;-56
2023/04/12 18:42:48;;;;;;;3.83;1.92;;;6.40;99.90;;;;;;7313337;32;20294;-56
2023/04/12 18:46:50;;;;;;;4.45;2.22;;;6.30;99.90;;;;;;7315652;32;20227;-56
2023/04/12 18:50:53;;;;;;;6.37;2.20;;;6.30;99.90;;;;;;7318922;32;20761;-57
2023/04/12 18:54:55;;;;;;;6.85;2.80;;;6.30;99.90;;;;;;7310861;32;20134;-56
2023/04/12 18:58:56;;;;;;;6.90;2.50;;;6.40;99.90;;;;;;7305625;32;20113;-57
2023/04/12 19:02:58;;;;;;;4.90;2.85;;;6.50;99.90;;;;;;7303205;32;20130;-56
2023/04/12 19:07:00;;;;;;;6.25;2.85;;;6.60;99.90;;;;;;7308233;32;20129;-56
2023/04/12 19:11:02;;;;;;;7.35;3.30;;;6.70;99.90;;;;;;7300295;32;20205;-57
2023/04/12 19:15:05;;;;;;;6.70;2.90;;;6.80;99.90;;;;;;7306618;32;20173;-57
2023/04/12 19:19:07;;;;;;;5.62;1.92;;;6.90;99.90;;;;;;7304112;32;20103;-57
2023/04/12 19:23:09;;;;;;;4.45;1.00;;;6.90;99.90;;;;;;7312837;32;20203;-57
2023/04/12 19:27:10;;;;;;;2.92;1.00;;;7.00;99.90;;;;;;7302620;32;20616;-58
2023/04/12 19:31:12;;;;;;;5.55;0.82;;;7.10;99.90;;;;;;7299060;32;20142;-57
2023/04/12 19:35:14;;;;;;;2.37;0.50;;;7.30;99.90;;;;;;7300110;32;20122;-58
2023/04/12 19:39:17;;;;;;;0.88;0.50;;;7.40;99.90;;;;;;7302896;32;20259;-55
2023/04/12 19:43:19;;;;;;;3.40;0.50;;;7.40;99.90;;;;;;7299631;32;20099;-57
2023/04/12 19:47:23;;;;;;;2.97;0.50;;;7.50;99.90;;;;;;7307300;32;20294;-56
2023/04/12 19:51:24;;;;;;;2.37;0.45;;;7.40;99.90;;;;;;7307853;32;20115;-56
2023/04/12 19:55:27;;;;;;;3.25;0.45;;;7.20;99.90;;;;;;7306725;32;20213;-56
2023/04/12 19:59:31;;;;;;;2.22;0.60;;;7.00;99.90;;;;;;7305597;32;20099;-55
2023/04/12 20:03:33;;;;;;;1.42;0.43;;;7.00;99.90;;;;;;7292725;32;20209;-57
2023/04/12 20:07:35;;;;;;;1.40;0.43;;;6.80;99.90;;;;;;7305765;32;20196;-56
2023/04/12 20:11:37;;;;;;;2.92;0.40;;;6.70;99.90;;;;;;7302152;32;20784;-56
2023/04/12 20:15:43;;;;;;;1.40;0.30;;;6.60;99.90;;;;;;7304546;32;20230;-55
2023/04/12 20:19:45;;;;;;;2.25;0.45;;;6.60;99.90;;;;;;7300293;32;20539;-56
2023/04/12 20:23:49;;;;;;;2.87;0.43;;;6.50;99.90;;;;;;7300341;32;20238;-56
2023/04/12 20:27:51;;;;;;;0.82;0.30;;;6.60;99.90;;;;;;7306445;32;20107;-57
2023/04/12 20:31:54;;;;;;;1.00;0.40;;;6.60;99.90;;;;;;7304397;32;20100;-56
2023/04/12 20:35:56;;;;;;;3.83;0.65;;;6.60;99.90;;;;;;7310342;32;20211;-55
2023/04/12 20:39:58;;;;;;;2.50;0.73;;;6.70;99.90;;;;;;7306796;32;20214;-56
2023/04/12 20:44:00;;;;;;;1.50;0.65;;;6.80;99.90;;;;;;7300829;32;20305;-56
2023/04/12 20:48:01;;;;;;;3.53;0.80;;;6.80;99.90;;;;;;7300966;32;20115;-57
2023/04/12 20:52:03;;;;;;;3.83;0.77;;;6.60;99.90;;;;;;7301566;32;20223;-57
2023/04/12 20:56:06;;;;;;;4.68;0.80;;;6.30;99.90;;;;;;7308403;32;20236;-56
2023/04/12 21:00:16;;;;;;;3.87;1.60;;;6.10;99.90;;;;;;7303820;32;20178;-56
2023/04/12 21:04:18;;;;;;;3.95;1.10;;;5.90;99.90;;;;;;7301679;32;20134;-57
2023/04/12 21:08:21;;;;;;;2.60;1.10;;;5.70;99.90;;;;;;7303947;32;20171;-56
2023/04/12 21:12:24;;;;;;;2.47;0.90;;;5.70;99.90;;;;;;7307663;32;20173;-57
2023/04/12 21:16:26;;;;;;;3.28;1.10;;;5.50;99.90;;;;;;7302866;32;20187;-56
2023/04/12 21:20:29;;;;;;;4.05;0.98;;;5.50;99.90;;;;;;7305595;32;20220;-57